Winfall, NC (27985)

11:52 AM EST on December 21, 2014 (GMT -0500)
Holiday Island Road | Change Station
CLOSE
Current Station
Personal Weather Station
Location: Hertford, NC
Elevation: 10 ft
Nearby Weather Stations

Elev 10 ft 36.12 °N, 76.45 °W | Updated 4 seconds ago

Partly Cloudy
Partly Cloudy
46.4 °F
Feels Like 46 °F
N
0.0
Wind Variable Wind from ENE
Gusts 6.0 mph

Today
High -- | Low -- °F
--% Chance of Precip.
Yesterday
High -- | Low -- °F
Precip. -- in
7:13 AM 4:54 PM
Waning Crescent, 0% visible
Pressure 30.32 in
Visibility 10.0 miles
Clouds Clear
Windchill 46 °F
Dew Point 35 °F
Humidity 65%
Rainfall 0.00 in
Snow Depth Not available.
UV 3 out of 12
Pollen .10 out of 12
Air Quality Not available.
Flu Activity Not available.
METAR KEDE 211635Z AUTO 03005KT 10SM CLR 08/00 A3032 RMK AO2 T00781003

More Conditions Fewer Conditions

Pressure 30.32 in
Visibility 10.0 miles
Clouds Clear
Windchill 46 °F
Dew Point 35 °F
Humidity 65%
Rainfall 0.00 in
Snow Depth Not available.
UV 3 out of 12
Pollen .10 out of 12
Air Quality Not available.
Flu Activity Not available.
METAR KEDE 211635Z AUTO 03005KT 10SM CLR 08/00 A3032 RMK AO2 T00781003

More Conditions Fewer Conditions

10-Day Weather Forecast

Almanac

Astronomy

Dec. 21, 2014 Rise Set
Actual Time
Civil Twilight
Nautical Twilight
Astronomical Twilight
Moon
Length of Visible Light
Length of Day
Tomorrow will be .
, % of the Moon is Illuminated

Today's Extremes

State Highs State Lows

Community

WunderPhotos

Upload Photos

1,779,433 photos uploaded!

WunderBlogs® & News

Nearby

Air Quality

  Air Quality AQ Index Pollutant
Not available.

Snow Depth

Station Depth Elevation

Earthquake Activity

City Distance Mag. Time & Date
Minimum magnitude displayed is 2.5.

Coastal Water Temperatures

Place Temperature

Nearby Weather Stations